Werte bis 5 Uhr SommerzeitDiagramme Beberbeck: Tagesdaten Monatsdaten WindroseCSV-Datei: Beberbeck21.csv

Wetterdaten 2021 Station: Beberbeck
Temperaturen in °C relative Nieder- Global- Wind Wind Wind- Sonnen-
Datum Boden Boden Luft Luft Luft Luft Feuchte schlag strahlung max richtung schein
20 cm 5 cm 20 cm 2 m 2 m max 2 m min % mm W/m2*d m/s m/s ° h

27.10.2021 9,7 9,5 7,9 8,5 9,6 7,7 93 0,0 0 1,9 6,5 204 ---
26.10.2021 9,3 9,1 9,9 10,1 14,3 7,9 90 0,0 1476 2,3 7,9 215 5,4
25.10.2021 9,0 8,1 5,0 5,7 12,5 -1,3 90 0,0 2582 1,9 8,1 200 6,8
24.10.2021 9,5 8,3 2,6 3,4 11,8 -2,6 88 0,0 2943 1,1 8,2 186 8,1
23.10.2021 10,1 9,2 3,8 4,3 10,4 -0,8 92 0,2 1870 1,0 5,0 235 7,1
22.10.2021 10,7 9,8 5,6 6,0 9,7 3,0 88 3,7 880 3,5 16,1 240 2,1
21.10.2021 11,5 11,3 9,7 10,2 15,2 5,5 85 6,0 786 5,8 20,8 232 1,9
20.10.2021 11,1 11,2 13,1 13,5 15,5 10,9 88 0,0 661 4,6 13,4 200 1,7
19.10.2021 10,7 10,4 10,3 10,3 12,7 7,9 97 0,0 667 3,8 8,4 199 0,4
18.10.2021 10,7 10,0 6,4 6,6 12,7 -0,3 92 0,0 2663 2,0 7,8 190 7,7
17.10.2021 10,9 10,3 5,8 5,9 13,0 0,3 92 0,0 1659 0,5 3,1 196 6,4
16.10.2021 11,1 10,3 5,3 5,2 12,6 -0,4 94 0,0 1949 0,5 2,8 223 4,8
15.10.2021 11,6 11,3 8,3 8,7 12,8 0,9 92 0,9 1062 2,3 8,3 236 2,5
14.10.2021 11,5 11,1 9,8 9,9 12,0 8,2 97 2,7 446 2,1 6,6 223 0,3
13.10.2021 11,4 10,9 7,8 7,6 11,1 4,8 95 0,8 1239 1,2 6,9 270 4,2
12.10.2021 11,5 11,1 7,7 7,8 13,0 2,3 96 4,7 1308 1,6 11,2 273 3,5
11.10.2021 11,4 10,6 7,1 7,2 13,9 -0,2 94 2,9 1474 1,0 6,5 267 5,6
10.10.2021 11,9 10,8 4,0 4,8 15,2 -2,6 85 0,0 3319 0,4 3,9 212 9,0
09.10.2021 12,5 11,9 7,2 7,9 16,1 1,1 83 0,0 3620 1,2 5,8 68 8,8
08.10.2021 12,8 12,3 8,3 8,7 16,6 1,8 91 0,1 2867 0,9 5,5 65 7,7
07.10.2021 13,2 13,0 10,6 10,7 16,4 4,3 92 0,8 1682 0,8 5,3 186 6,5
06.10.2021 13,3 12,8 10,6 10,6 13,2 8,5 89 0,3 1736 3,3 10,6 200 4,7
05.10.2021 13,5 13,1 10,4 10,4 14,2 6,2 94 5,6 1499 1,9 9,8 193 6,5
04.10.2021 13,9 13,7 11,3 11,5 15,3 6,9 87 0,0 1792 2,0 7,3 203 7,0
03.10.2021 13,7 13,8 17,8 18,2 21,0 12,8 67 0,0 1103 5,2 15,8 197 3,5
02.10.2021 13,4 13,1 13,1 13,4 17,2 10,2 81 0,0 1532 2,6 8,1 193 5,9
01.10.2021 13,4 12,8 11,0 11,2 17,9 6,1 74 0,0 3922 3,0 9,9 200 8,5
30.09.2021 13,8 13,0 9,0 9,1 14,8 5,0 82 0,1 3079 2,3 8,5 215 8,2
29.09.2021 14,7 14,1 9,6 9,9 15,9 5,7 92 2,0 1696 2,0 12,9 211 4,4
28.09.2021 15,2 15,1 12,0 12,2 18,7 7,2 89 0,5 2996 0,7 3,6 220 8,8
27.09.2021 15,3 15,6 16,4 16,3 19,8 12,4 93 3,2 2053 2,3 12,0 211 6,5
26.09.2021 14,7 14,9 16,1 16,1 23,7 7,9 89 3,7 3617 1,6 8,3 199 7,7
25.09.2021 14,7 14,8 14,6 14,7 20,1 10,4 91 0,0 1640 1,4 6,0 228 7,7
24.09.2021 14,5 14,6 14,8 14,8 18,9 11,8 91 0,5 1412 1,9 7,5 238 4,7
23.09.2021 14,4 14,0 12,8 12,9 20,9 3,8 80 0,0 4043 2,9 12,8 252 8,0
22.09.2021 14,6 14,4 12,1 11,9 19,4 6,1 89 0,0 3164 0,9 5,7 277 8,6
21.09.2021 14,6 14,3 10,9 10,8 16,4 6,6 85 1,6 3217 0,7 5,3 335 8,8
20.09.2021 14,9 14,4 9,5 9,6 13,4 3,8 86 0,0 1964 1,2 5,9 58 7,5
19.09.2021 15,6 15,3 12,1 12,1 13,7 8,7 83 0,0 1408 2,0 7,2 100 6,2
18.09.2021 15,7 15,6 13,3 13,3 18,2 8,6 91 0,1 2632 0,9 4,7 16 6,7
17.09.2021 15,9 15,9 14,4 14,5 17,9 10,6 90 0,0 2114 1,3 5,8 280 6,0
16.09.2021 16,2 16,3 14,5 14,8 16,9 12,7 90 0,3 1604 1,6 6,1 278 4,9
15.09.2021 16,1 16,5 17,5 17,8 21,3 14,9 94 1,7 1925 1,6 8,2 228 8,3
14.09.2021 15,8 15,7 15,6 16,4 26,2 7,6 86 0,0 4419 0,9 6,0 80 8,8
13.09.2021 16,1 16,0 13,0 13,4 20,9 7,4 88 0,0 3414 0,5 4,1 1 9,0
12.09.2021 16,4 16,7 16,1 16,3 21,5 10,4 91 0,8 2366 1,1 4,4 270 7,0
11.09.2021 16,3 16,8 17,3 17,4 22,0 12,6 92 3,1 3283 1,6 6,4 227 8,3
10.09.2021 16,1 16,7 18,4 18,6 25,2 15,2 93 6,3 2148 1,3 12,4 212 5,4
09.09.2021 15,5 15,8 17,7 18,3 26,9 8,4 80 0,0 4840 1,4 6,8 209 9,2
08.09.2021 15,4 15,5 16,4 17,1 25,9 7,9 75 0,0 5263 1,3 6,0 94 9,8
07.09.2021 15,3 15,5 15,8 16,2 24,1 9,9 80 0,0 4310 0,8 3,6 21 10,5
06.09.2021 15,1 15,1 14,0 14,6 24,8 6,4 85 0,0 4872 0,6 4,0 339 9,8
05.09.2021 15,1 14,9 13,2 13,6 23,6 4,2 83 0,0 5370 1,0 5,4 35 10,1
04.09.2021 15,5 15,4 12,7 12,8 20,6 7,6 93 0,1 2911 1,0 4,1 17 9,0
03.09.2021 15,5 15,6 14,5 14,9 24,6 7,6 85 0,0 5326 0,7 5,4 340 10,4
02.09.2021 15,5 15,4 13,7 13,8 22,7 6,4 87 0,0 3778 0,8 6,0 14 9,5
01.09.2021 15,7 15,7 13,8 13,8 20,0 8,5 89 0,0 3401 1,1 5,0 317 9,1
31.08.2021 15,7 15,9 15,1 15,0 20,4 9,6 88 0,0 3991 1,8 7,9 350 9,4
30.08.2021 15,7 15,8 15,0 15,1 16,8 12,9 94 0,6 1512 2,9 8,5 355 4,7
29.08.2021 15,7 15,7 14,3 14,1 15,9 12,9 98 5,3 1497 2,7 7,0 347 5,2
28.08.2021 15,5 15,5 14,1 13,7 17,8 9,4 92 13,3 3731 1,6 6,9 334 8,7
27.08.2021 15,7 15,5 12,6 12,7 16,1 10,5 95 4,1 1395 2,0 9,6 309 3,5
26.08.2021 15,8 16,0 14,1 14,0 18,1 11,5 88 1,9 3292 2,7 11,6 307 8,0
25.08.2021 15,6 15,4 13,7 13,9 21,3 4,2 77 0,0 5243 1,4 7,7 308 10,6
24.08.2021 16,0 15,8 13,0 12,9 19,7 5,4 81 0,0 5370 2,2 9,3 28 10,6
23.08.2021 16,5 16,7 14,9 14,8 20,4 8,7 90 0,9 3088 2,0 9,2 4 6,9
22.08.2021 16,5 16,8 16,2 16,2 21,7 12,3 93 3,9 2423 1,2 6,7 210 7,0
21.08.2021 16,3 16,5 16,5 16,8 26,1 8,2 82 0,0 4921 0,6 4,2 339 10,3
20.08.2021 16,2 16,5 16,2 16,1 21,2 11,2 86 0,0 3205 1,2 6,1 259 8,4
19.08.2021 16,1 16,2 15,7 15,7 17,7 13,5 92 1,1 1498 2,1 7,8 243 6,0
18.08.2021 15,9 15,8 15,1 15,0 18,6 11,8 87 1,6 2421 2,5 9,7 236 7,4
17.08.2021 16,3 15,8 13,3 13,3 17,0 10,3 79 0,1 2666 3,9 11,7 256 7,7
16.08.2021 17,1 17,1 14,5 14,8 18,7 11,1 86 3,8 2098 3,1 12,3 242 6,0
15.08.2021 17,2 17,5 17,3 17,4 26,5 8,8 80 0,0 5179 1,2 8,6 217 10,9
14.08.2021 17,3 17,7 18,2 18,2 27,0 8,8 76 0,0 5808 1,5 8,1 259 11,2
13.08.2021 17,2 17,9 20,0 20,0 28,1 11,8 79 0,0 5152 1,6 8,6 276 11,1
12.08.2021 16,7 17,2 18,6 18,6 26,0 10,0 80 0,0 5285 1,2 7,7 203 11,4
11.08.2021 16,5 16,9 16,9 16,7 25,1 9,7 81 0,2 4896 0,7 3,7 197 11,4
10.08.2021 16,3 16,5 16,0 15,7 21,7 10,6 87 1,3 4571 2,0 8,8 224 8,4
09.08.2021 16,3 16,3 15,5 15,4 20,1 11,1 83 0,2 3578 2,7 10,4 204 9,8
08.08.2021 16,6 16,7 16,1 15,8 19,4 11,8 77 0,2 4132 3,9 11,3 212 10,8
07.08.2021 16,6 16,8 17,0 16,8 21,0 11,9 82 0,0 4116 3,2 11,3 200 11,5
06.08.2021 16,7 16,9 15,5 15,5 21,8 9,7 92 6,3 3331 2,0 11,3 209 9,4
05.08.2021 16,6 16,9 16,9 16,4 23,4 11,7 86 21,7 4570 1,0 10,9 159 9,3
04.08.2021 16,4 16,6 15,8 15,2 22,5 10,6 88 0,9 3933 0,9 5,2 48 10,0
03.08.2021 16,5 16,6 14,9 14,5 19,3 8,0 85 0,0 2935 0,8 4,6 208 9,6
02.08.2021 16,6 16,8 15,9 15,3 18,9 11,8 83 2,6 4073 1,6 6,5 281 10,9
01.08.2021 16,5 16,6 16,4 15,9 21,2 11,5 84 0,3 3799 1,5 8,1 242 10,3
31.07.2021 16,7 16,7 16,7 16,6 20,3 11,9 71 0,0 3608 3,5 12,1 235 11,3
30.07.2021 16,7 16,7 17,5 17,1 24,3 7,9 74 0,0 6461 2,2 9,4 213 11,8
29.07.2021 17,1 17,2 17,2 16,9 21,0 11,5 71 0,0 5331 3,4 14,0 229 11,5
28.07.2021 17,4 17,6 17,4 17,1 22,6 12,5 86 1,7 4049 2,8 10,8 210 10,5
27.07.2021 17,6 18,0 18,3 18,1 24,8 13,1 84 2,5 4976 2,1 20,7 202 10,5
26.07.2021 17,5 18,1 19,6 19,5 26,0 12,9 81 2,4 5400 1,6 8,4 210 10,8
25.07.2021 17,4 18,0 19,7 19,9 26,7 12,4 81 0,0 4993 1,6 8,2 210 10,7
24.07.2021 17,1 17,5 19,3 19,9 27,6 11,1 77 0,1 4056 1,5 6,8 56 9,3
23.07.2021 17,0 17,4 17,9 18,1 25,5 10,1 75 0,0 6226 1,1 6,4 15 11,8
22.07.2021 16,9 17,0 16,8 17,2 25,9 9,0 79 0,0 4413 0,6 3,5 338 10,5
21.07.2021 17,0 17,1 16,8 16,3 22,8 10,5 81 0,0 3872 0,9 6,2 4 11,1
20.07.2021 17,3 17,3 14,7 14,3 19,7 8,8 79 0,0 4378 1,3 6,3 1 11,2
19.07.2021 17,7 18,1 17,3 16,9 22,1 10,8 75 0,0 4582 2,2 6,8 346 10,1
18.07.2021 17,4 17,8 18,2 18,1 26,3 8,9 79 0,0 5960 1,8 7,9 345 10,3
17.07.2021 17,4 18,0 19,7 19,3 26,7 11,9 77 0,0 4457 2,7 9,3 319 9,8
16.07.2021 17,4 17,8 17,6 17,2 19,4 13,7 93 0,0 1726 1,9 5,8 331 7,1
15.07.2021 17,0 17,3 18,7 18,5 25,7 10,4 79 0,0 6145 1,2 6,2 328 12,2
14.07.2021 17,3 17,5 16,0 15,9 19,4 12,8 99 60,9 1063 2,5 9,1 189 2,2
13.07.2021 17,3 17,8 18,7 18,5 25,5 12,6 91 0,0 2700 1,1 5,1 342 7,5
12.07.2021 16,9 17,4 19,5 19,1 27,1 11,4 81 0,0 5725 0,8 5,3 160 12,3
11.07.2021 16,8 17,1 16,9 16,9 22,2 11,5 91 2,4 3677 1,2 7,4 255 10,1
10.07.2021 16,7 16,9 17,2 17,0 23,0 10,6 88 2,0 4140 1,0 4,5 77 11,2
09.07.2021 16,9 17,1 15,7 15,6 17,8 14,5 98 10,8 1643 1,6 6,7 309 5,7
08.07.2021 16,8 17,2 17,4 17,5 26,2 11,2 83 16,4 3923 0,7 5,3 75 9,4
07.07.2021 16,7 17,2 18,3 18,0 24,0 12,3 79 0,0 5792 1,4 7,9 198 10,3
06.07.2021 16,8 17,2 18,4 18,3 21,3 14,9 88 3,8 3048 3,0 11,1 198 9,6
05.07.2021 16,8 17,2 17,1 16,7 21,2 11,8 91 1,9 3537 2,0 7,4 200 10,4
04.07.2021 16,6 17,2 17,8 17,4 26,7 10,8 84 0,4 4890 1,0 7,0 223 9,5
03.07.2021 16,0 16,3 16,9 16,4 26,0 7,2 78 0,0 7098 0,9 5,9 298 11,8
02.07.2021 16,0 16,0 14,8 14,7 21,0 10,0 90 0,3 3054 1,4 4,4 256 7,6
01.07.2021 16,9 16,6 13,1 13,1 14,6 12,1 98 14,8 894 2,3 6,7 254 1,2
30.06.2021 17,6 18,2 17,2 16,9 20,0 14,5 89 3,9 2861 1,8 6,7 248 8,7
29.06.2021 17,5 18,4 20,3 19,8 26,7 15,6 85 9,3 4696 1,6 8,4 214 9,4
28.06.2021 17,3 18,2 21,0 20,9 26,7 15,8 79 9,5 3187 1,0 11,0 236 9,5
27.06.2021 16,8 17,6 19,9 19,6 27,7 9,9 68 0,0 6721 1,2 5,7 82 12,6
26.06.2021 16,6 17,1 17,5 17,3 26,6 7,5 73 0,0 6816 1,0 5,4 22 12,5
25.06.2021 16,6 17,3 17,7 17,2 22,5 10,3 81 2,7 5892 1,2 5,7 319 12,1
24.06.2021 16,6 17,0 16,5 16,1 21,6 13,1 91 5,2 2871 1,4 5,6 5 7,4
23.06.2021 16,6 17,1 16,6 15,8 21,1 12,2 84 0,1 3933 1,7 4,7 19 11,2
22.06.2021 17,0 17,3 15,0 14,4 19,5 11,8 87 0,1 3427 1,8 6,5 9 9,5
21.06.2021 17,8 18,7 19,2 18,7 24,2 13,0 87 13,7 3935 3,0 11,5 216 10,0
20.06.2021 17,6 19,0 23,8 23,0 29,6 18,2 76 8,6 6912 2,6 15,7 213 11,6
19.06.2021 17,1 18,7 25,0 24,4 33,1 16,0 68 0,0 7240 1,2 5,7 276 11,8
18.06.2021 16,7 18,2 24,6 24,7 36,0 14,4 68 0,0 6652 0,9 7,4 228 10,8
17.06.2021 16,0 17,5 25,5 25,2 32,7 13,9 62 0,0 7710 1,7 7,5 200 11,9
16.06.2021 15,3 16,4 21,5 21,0 30,7 9,3 70 0,0 7153 1,5 6,8 119 12,6
15.06.2021 15,0 15,9 17,6 17,7 25,0 9,6 80 3,3 6818 1,5 6,5 6 13,1
14.06.2021 14,7 15,2 17,3 17,3 28,8 5,2 70 0,0 8082 1,4 5,9 277 12,6
13.06.2021 14,8 15,2 13,9 14,1 20,6 6,4 73 0,0 7558 1,8 8,2 349 12,2
12.06.2021 15,4 16,1 16,2 16,7 21,5 11,8 79 0,0 3604 2,6 12,0 289 9,5
11.06.2021 15,3 16,3 18,5 19,0 26,4 9,5 75 0,0 7398 1,4 7,0 292 13,0
10.06.2021 15,1 16,2 18,2 18,4 25,5 10,9 79 0,2 6928 1,3 6,6 321 11,6
09.06.2021 14,6 15,6 19,3 19,3 26,6 12,8 82 8,7 5833 1,0 5,8 25 12,3
08.06.2021 14,5 15,3 17,0 17,1 21,8 12,0 85 0,0 3940 0,9 3,9 352 12,1
07.06.2021 14,4 15,3 17,1 16,7 21,4 13,7 86 0,0 4407 1,7 5,8 356 10,6
06.06.2021 14,6 15,5 16,4 16,2 18,4 14,9 92 0,0 1668 1,8 5,0 329 5,3
05.06.2021 14,5 15,8 19,4 19,2 25,2 13,8 85 0,0 5270 1,7 7,4 294 11,5
04.06.2021 13,9 15,3 19,9 19,9 26,3 14,4 83 0,7 5524 1,1 5,2 319 11,2
03.06.2021 13,5 14,6 17,8 18,9 26,2 9,6 71 0,2 4302 1,5 8,6 257 10,3
02.06.2021 12,8 13,9 18,6 19,2 27,1 9,7 60 0,0 7837 1,8 7,1 150 11,2
01.06.2021 12,2 12,8 13,9 14,9 24,3 3,3 65 0,0 7568 1,3 8,3 46 11,6
31.05.2021 11,8 12,6 13,9 14,6 23,1 4,6 66 0,0 7882 1,3 11,2 38 11,8
30.05.2021 11,3 11,7 11,6 11,8 20,1 1,6 76 0,0 6699 1,6 8,7 29 11,6
29.05.2021 11,3 11,7 10,1 9,7 15,7 4,0 86 0,1 4520 1,4 7,1 3 9,9
28.05.2021 10,7 11,3 12,4 11,9 17,5 8,5 79 0,2 6112 1,9 8,0 317 11,8
27.05.2021 10,6 10,6 9,2 9,3 10,7 7,5 92 7,5 1360 3,4 9,4 257 4,3
26.05.2021 10,7 10,7 10,0 9,6 14,0 7,0 83 1,1 4270 3,8 13,5 212 11,2
25.05.2021 10,9 11,0 9,4 9,1 13,6 6,8 82 2,8 3403 4,7 19,2 218 8,4
24.05.2021 10,7 10,9 12,8 12,9 20,1 5,2 65 0,1 6690 3,7 13,5 208 10,5
23.05.2021 10,7 10,7 10,5 10,5 15,3 6,8 73 0,0 3726 3,3 11,2 223 8,6
22.05.2021 11,1 11,0 9,9 10,0 12,3 7,0 79 0,7 2279 5,3 16,1 216 8,2
21.05.2021 11,5 11,9 13,5 13,3 17,7 9,1 64 0,1 5161 5,1 16,3 211 11,7
20.05.2021 11,2 11,7 11,4 11,1 16,9 5,7 80 0,0 4862 1,4 7,4 226 10,3
19.05.2021 11,0 11,2 9,3 8,9 17,0 2,4 88 4,7 4811 1,3 12,5 250 10,3
18.05.2021 11,1 11,4 10,4 10,0 13,2 7,1 89 3,5 3396 2,1 7,4 254 9,4
17.05.2021 11,0 11,3 10,5 10,1 15,3 5,4 88 5,6 4335 2,8 10,5 214 8,5
16.05.2021 11,1 11,5 11,4 10,8 15,1 7,9 84 1,3 4461 3,0 11,2 197 10,8
15.05.2021 11,3 11,6 10,5 10,0 14,9 3,9 85 0,5 4667 3,2 12,3 204 10,6
14.05.2021 11,5 12,2 12,2 11,9 17,1 9,1 83 0,2 3572 1,5 6,6 260 8,8
13.05.2021 11,2 12,0 12,7 12,5 17,4 9,1 85 0,0 3641 1,1 8,1 343 9,2
12.05.2021 11,0 11,8 12,7 12,5 14,9 9,1 87 1,7 2825 2,0 7,2 304 9,7
11.05.2021 10,8 11,8 13,8 13,5 15,3 11,9 96 5,2 1590 1,4 5,3 343 5,1
10.05.2021 10,4 11,7 18,1 18,4 24,8 13,0 61 2,2 3579 2,9 15,1 211 8,7
09.05.2021 8,8 10,0 18,5 18,3 26,8 8,6 51 0,0 7077 4,2 13,2 198 11,6
08.05.2021 8,0 8,0 8,3 7,9 14,0 -2,1 65 0,1 4723 2,5 10,0 195 10,6
07.05.2021 8,2 8,3 5,9 5,4 9,9 2,0 83 1,2 4568 3,0 12,4 270 9,4
06.05.2021 7,8 7,8 6,4 5,9 12,4 0,7 78 1,6 3801 2,5 9,8 236 10,0
05.05.2021 8,0 7,9 6,8 6,5 9,7 3,0 72 0,9 3454 5,3 17,8 242 8,9
04.05.2021 8,2 8,2 9,9 9,6 14,1 7,2 62 0,0 3018 7,3 21,9 220 8,0
03.05.2021 8,2 8,1 7,6 7,0 12,3 -0,1 67 0,0 4365 2,8 14,1 221 9,9
02.05.2021 8,6 8,7 6,7 6,4 10,6 3,8 76 0,0 3672 3,4 12,7 293 9,2
01.05.2021 8,5 8,8 7,8 7,6 12,0 3,3 82 0,0 3555 1,3 6,5 313 10,5
30.04.2021 8,7 8,7 7,1 6,9 9,2 4,4 88 0,0 1161 1,7 9,8 271 2,9
29.04.2021 9,1 9,8 10,2 9,7 14,2 6,6 81 4,4 3992 3,7 14,3 223 8,4
28.04.2021 8,3 8,9 11,6 11,5 20,3 -1,5 47 0,0 6058 2,0 12,3 97 9,8
27.04.2021 8,0 8,4 7,9 7,3 13,3 -2,0 47 0,0 6915 3,1 11,3 87 10,9
26.04.2021 7,7 8,0 6,0 5,7 13,3 -3,6 54 0,0 6716 1,6 8,5 37 11,0
25.04.2021 7,8 7,9 3,5 3,4 11,1 -3,5 74 0,0 5242 2,1 8,9 3 11,6
24.04.2021 7,9 8,2 4,2 4,3 11,1 -2,8 78 0,0 5600 1,5 9,0 352 10,7
23.04.2021 7,9 8,1 5,0 5,0 12,4 -1,8 76 0,0 4945 1,8 8,3 306 9,5
22.04.2021 8,3 8,5 5,2 5,2 10,6 -1,3 68 0,0 5067 2,7 10,2 322 11,1
21.04.2021 8,3 8,9 8,2 8,2 16,2 -0,5 73 0,0 5489 2,2 9,7 349 10,4
20.04.2021 7,8 8,7 9,9 9,6 16,8 3,7 80 0,0 5099 1,5 7,1 269 10,5
19.04.2021 7,3 8,0 8,7 8,6 14,3 3,9 85 0,2 3112 1,3 6,2 58 9,0
18.04.2021 6,5 7,0 7,7 7,7 14,4 1,5 85 1,8 3121 1,4 8,3 350 8,1
17.04.2021 6,2 6,4 5,1 5,3 9,8 -1,1 72 0,0 2288 1,6 7,6 2 6,8
16.04.2021 5,7 6,0 5,7 5,4 10,9 -0,7 66 0,0 4481 2,3 7,9 31 9,9
15.04.2021 5,4 5,3 1,7 1,8 7,3 -3,8 82 0,0 3608 1,4 10,8 29 8,8
14.04.2021 5,5 5,4 1,0 0,9 7,9 -3,7 90 0,9 3942 1,3 11,6 105 9,9
13.04.2021 5,6 5,3 2,0 1,9 8,0 -3,2 83 0,0 3794 1,9 12,1 286 9,2
12.04.2021 5,8 5,6 3,2 2,7 7,5 -0,7 85 0,2 3536 2,3 8,4 291 8,6
11.04.2021 6,3 6,5 5,5 5,7 10,6 0,3 95 10,5 747 1,9 7,5 231 0,6
10.04.2021 5,7 6,1 6,4 6,2 9,4 2,2 92 10,1 2011 1,9 7,0 110 6,1
09.04.2021 4,8 4,8 6,0 5,8 11,9 0,8 68 0,1 5088 3,6 10,9 226 10,3
08.04.2021 4,6 4,1 2,1 1,8 5,3 -1,1 80 0,0 2300 3,4 9,5 258 8,3
07.04.2021 4,9 4,1 0,8 0,6 3,7 -1,3 89 3,1 1509 3,8 10,7 266 4,7
06.04.2021 5,4 4,5 0,5 0,0 3,8 -2,8 88 1,2 3888 3,9 14,1 274 8,2
05.04.2021 6,3 5,6 1,6 1,6 5,3 -1,1 84 3,4 1988 4,2 15,5 257 5,7
04.04.2021 7,2 6,8 3,6 3,5 5,7 0,2 80 0,0 1674 2,2 6,9 295 6,6
03.04.2021 7,6 7,7 4,8 4,9 9,8 1,4 77 0,0 3838 2,6 9,6 344 8,0
02.04.2021 8,2 8,5 5,8 5,5 9,2 2,4 76 0,0 3422 3,4 11,3 352 6,8
01.04.2021 8,2 9,1 10,2 10,4 19,7 4,4 72 0,0 4640 2,5 9,9 329 9,4
31.03.2021 7,5 8,3 11,6 11,9 24,4 0,2 62 0,0 5289 1,1 5,9 185 9,6
30.03.2021 6,9 7,7 9,9 10,5 22,2 0,0 61 0,0 5296 0,7 4,7 329 9,6
29.03.2021 6,2 7,0 11,7 12,0 20,6 4,8 57 0,0 5048 3,0 11,1 218 10,0
28.03.2021 5,5 5,3 6,0 6,3 12,2 -1,0 77 0,0 2443 3,4 12,2 211 8,1
27.03.2021 6,3 6,3 4,7 4,9 9,8 -0,1 82 2,6 2525 4,0 20,2 241 6,3
26.03.2021 6,2 7,0 9,8 9,6 14,5 5,0 76 0,0 3842 2,6 12,7 198 8,7
25.03.2021 5,4 5,7 6,9 7,1 15,0 -1,0 80 0,0 3178 1,1 5,6 264 9,3
24.03.2021 4,8 5,0 5,4 5,4 14,8 -2,6 81 0,0 4857 1,9 7,5 199 9,2
23.03.2021 4,7 4,9 4,8 4,8 9,8 -0,8 84 0,0 1865 1,3 6,3 262 6,5
22.03.2021 4,4 4,5 3,9 3,9 7,2 1,6 87 0,2 1611 2,6 8,4 330 5,2
21.03.2021 4,2 4,3 4,1 4,2 7,0 2,5 81 0,0 2171 4,5 14,1 310 7,6
20.03.2021 4,0 3,7 0,6 0,4 4,4 -5,1 61 0,0 3753 1,6 6,7 312 8,7
19.03.2021 4,0 4,0 1,9 1,6 5,8 -1,8 81 0,1 3949 3,5 12,6 21 8,5
18.03.2021 3,9 3,5 0,5 0,4 5,4 -3,8 91 0,8 1977 1,1 6,7 318 5,3
17.03.2021 4,3 4,0 1,0 1,1 5,0 -2,5 87 0,0 1429 1,3 5,1 330 4,9
16.03.2021 4,6 4,5 3,0 3,1 7,2 -1,4 85 0,0 1933 2,8 11,2 322 5,3
15.03.2021 4,6 4,6 3,8 3,8 6,4 2,0 91 6,7 2117 3,8 13,8 273 6,6
14.03.2021 4,6 4,5 4,3 4,3 6,8 2,7 83 0,6 1589 4,3 11,9 250 5,0
13.03.2021 4,8 4,7 4,7 5,0 7,3 3,7 85 2,0 1634 6,7 23,1 217 5,3
12.03.2021 4,8 4,8 5,2 5,3 8,9 2,4 79 7,1 2182 5,5 14,4 228 6,0
11.03.2021 4,4 4,7 6,7 7,2 13,1 4,3 82 4,2 1632 6,9 20,5 219 3,7
10.03.2021 3,8 3,8 4,2 4,0 7,2 1,1 89 0,0 1915 2,3 11,0 191 5,8
09.03.2021 3,8 3,4 0,9 0,7 2,2 -1,0 96 6,6 798 1,6 5,7 194 2,1
08.03.2021 3,7 3,7 1,9 1,9 7,3 -1,7 80 0,7 2455 1,1 3,9 298 5,1
07.03.2021 3,8 3,2 -0,8 -0,7 3,8 -5,5 85 0,1 2590 1,3 7,8 300 7,8
06.03.2021 4,3 3,8 -1,2 -1,0 6,9 -6,7 84 0,0 3539 0,7 5,0 327 8,3
05.03.2021 4,7 4,7 1,4 1,1 5,2 -4,5 80 0,1 3791 2,8 8,7 16 8,2
04.03.2021 5,0 4,8 2,6 2,9 7,2 1,2 99 4,2 666 1,3 6,8 340 1,3
03.03.2021 5,0 5,0 3,8 4,5 13,7 -2,4 87 0,0 2610 1,1 5,9 219 8,1
02.03.2021 5,0 5,1 3,1 3,6 15,9 -2,8 87 0,2 3499 0,5 3,7 218 8,3
01.03.2021 5,3 5,5 3,5 3,4 10,5 -0,1 95 0,0 1909 1,3 4,3 87 5,9
28.02.2021 5,2 5,5 4,2 4,0 8,5 0,0 94 0,0 2618 1,1 5,1 1 7,0
27.02.2021 5,4 5,1 2,3 2,3 4,2 -0,9 97 0,0 780 1,2 5,9 332 2,4
26.02.2021 6,1 6,4 5,7 6,2 9,3 1,8 87 0,0 1229 1,9 7,8 346 3,0
25.02.2021 6,0 6,7 9,7 10,7 18,6 4,0 78 0,0 2934 1,6 7,1 207 7,7
24.02.2021 5,4 6,3 11,5 12,3 17,5 8,0 76 0,0 2805 3,0 8,3 197 7,8
23.02.2021 4,5 5,2 10,0 10,4 16,4 5,0 76 0,0 2648 3,0 7,8 201 7,5
22.02.2021 3,9 4,1 5,7 6,4 13,2 -1,2 80 0,0 2856 2,8 11,2 202 7,4
21.02.2021 3,7 4,4 9,3 10,4 16,1 2,0 64 0,0 3112 3,2 11,1 190 8,0
20.02.2021 2,7 3,1 7,5 8,4 14,2 3,6 81 0,0 2579 3,1 9,1 197 7,1
19.02.2021 1,8 1,9 4,2 4,8 8,4 -0,1 86 0,0 2739 2,6 13,2 202 7,5
18.02.2021 1,7 1,2 4,0 5,4 8,1 1,6 84 0,0 1661 2,9 8,5 190 5,4
17.02.2021 1,8 1,3 2,9 4,4 7,4 2,0 92 0,0 1381 2,5 7,2 203 4,9
16.02.2021 2,0 1,5 1,9 2,5 5,6 0,0 95 0,3 1491 3,0 8,2 199 5,5
15.02.2021 2,0 1,5 -3,9 -2,4 0,0 -8,1 68 0,0 832 3,4 13,1 188 2,3
14.02.2021 2,1 1,6 -14,6 -11,6 0,1 -22,8 77 0,0 3149 0,6 5,3 268 8,0
13.02.2021 2,2 1,7 -15,1 -12,2 -1,0 -23,1 84 0,1 3328 0,9 5,9 56 8,2
12.02.2021 2,3 1,8 -16,1 -14,2 -4,0 -22,5 85 0,0 3097 1,3 8,0 57 7,9
11.02.2021 2,4 1,9 -8,4 -7,7 -1,5 -18,8 86 0,0 2001 1,4 5,6 --- 6,2
10.02.2021 2,5 2,0 -14,3 -14,2 -4,7 -25,8 88 0,0 1334 0,9 5,8 25 5,3
09.02.2021 2,7 2,2 -11,8 -12,3 -6,9 -20,5 86 0,0 2289 0,9 5,4 358 6,9
08.02.2021 2,9 2,4 -8,2 -8,9 -7,0 -10,9 88 0,0 1354 3,1 8,6 49 4,5
07.02.2021 3,3 2,7 -5,6 -5,6 -2,3 -7,1 90 0,0 425 7,5 22,5 85 0,1
06.02.2021 3,8 3,7 0,9 0,9 4,0 -2,3 97 0,0 300 3,9 16,8 78 ---
05.02.2021 3,9 3,8 3,4 3,8 5,3 0,7 94 0,0 343 0,9 4,4 113 ---
04.02.2021 4,0 4,4 5,2 5,6 7,7 0,3 90 0,0 984 2,6 9,5 264 2,6
03.02.2021 3,1 3,6 7,2 7,8 10,0 6,5 96 4,8 273 3,3 11,1 207 ---
02.02.2021 2,2 2,0 3,2 3,4 7,0 1,2 99 2,7 487 2,4 6,9 206 0,7
01.02.2021 2,0 1,5 0,2 0,2 4,2 -2,1 93 0,5 890 1,6 6,0 149 2,8
31.01.2021 2,3 1,8 -2,1 -2,0 2,2 -5,9 83 0,0 2011 1,8 7,1 100 6,3
30.01.2021 2,6 2,5 0,1 0,1 5,9 -1,8 91 2,1 782 3,5 12,4 40 2,3
29.01.2021 2,2 1,9 2,5 3,0 6,8 0,4 98 8,1 396 1,9 13,1 209 ---
28.01.2021 2,3 1,8 0,8 1,0 1,8 0,0 100 6,2 355 2,0 5,6 206 ---
27.01.2021 2,4 1,8 -0,6 -0,3 1,1 -3,0 98 0,0 629 3,4 9,2 197 1,4
26.01.2021 2,5 1,8 -0,3 -0,2 1,1 -3,2 97 0,0 428 3,0 11,2 241 0,3
25.01.2021 2,8 2,2 -3,0 -2,5 2,3 -5,0 97 0,3 1255 0,7 3,3 238 5,0
24.01.2021 3,2 2,6 0,1 0,2 1,0 -2,1 98 1,1 438 1,8 6,6 348 0,4
23.01.2021 3,5 3,0 0,6 0,9 3,5 -1,3 97 0,0 828 1,8 8,7 189 2,9
22.01.2021 3,8 4,0 3,9 4,3 9,1 -1,3 91 0,0 579 3,8 14,9 220 1,8
21.01.2021 3,2 3,3 6,2 6,8 9,4 4,6 75 0,0 693 7,0 20,5 201 2,2
20.01.2021 2,7 2,6 4,1 4,6 7,5 1,4 80 0,1 633 5,5 12,6 197 1,4
19.01.2021 2,3 1,9 2,2 2,7 5,3 0,5 95 5,3 150 5,4 11,7 204 ---
18.01.2021 2,2 1,7 1,1 1,5 2,7 -0,7 97 2,7 360 2,4 6,3 212 ---
17.01.2021 2,3 1,7 -1,9 -2,1 -0,7 -3,4 93 0,0 698 2,2 5,9 190 2,9
16.01.2021 2,5 1,8 -1,9 -2,0 -0,5 -3,0 81 0,0 439 2,1 6,8 228 ---
15.01.2021 2,7 2,1 -1,9 -1,6 -0,1 -5,0 93 0,0 403 2,0 6,2 2 0,3
14.01.2021 2,7 2,2 -0,5 -0,2 0,7 -0,8 90 0,3 511 2,4 13,4 350 1,0
13.01.2021 2,9 2,3 0,8 1,4 2,5 0,1 90 1,4 280 4,9 14,0 263 0,1
12.01.2021 3,0 2,4 0,6 1,0 2,9 0,0 98 6,7 329 4,2 9,4 232 ---
11.01.2021 3,1 2,5 -0,4 -0,5 0,5 -1,5 90 0,0 737 4,2 11,0 199 2,9
10.01.2021 3,2 2,7 -0,9 -0,7 1,7 -2,5 97 1,7 719 1,4 3,9 201 2,8
09.01.2021 3,2 2,7 -1,2 -0,9 0,5 -3,4 97 1,3 475 0,4 2,7 253 ---
08.01.2021 3,2 2,6 -0,2 -0,2 0,5 -1,1 99 2,1 350 1,0 4,3 262 ---
07.01.2021 3,4 2,7 -0,2 -0,2 0,9 -0,8 97 0,5 339 2,1 6,1 224 0,4
06.01.2021 3,5 3,0 0,5 0,6 1,3 -0,6 98 0,7 152 2,4 6,1 341 ---
05.01.2021 3,6 3,0 0,3 0,3 1,2 -0,1 98 0,1 191 2,4 6,7 32 ---
04.01.2021 3,7 3,1 -0,1 -0,1 0,4 -0,3 98 1,5 345 1,8 5,1 31 ---
03.01.2021 3,9 3,4 0,6 0,8 1,8 -0,4 92 0,8 359 3,2 10,6 31 0,1
02.01.2021 3,9 3,4 1,4 1,5 3,2 0,6 94 0,0 371 1,1 4,2 205 ---
01.01.2021 3,9 3,3 0,5 0,5 2,7 -0,4 98 0,3 426 0,8 3,6 233 0,8

Mittelwerte (Temperaturen, Strahlung, rel. Feuchte, Wind), Summe (Regen) für 2021
10,4 10,5 9,6 9,7 84 475 3.171 2,2

Landesbetrieb Landwirtschaft Hessen 2009

      Werte bis 5 Uhr SommerzeitCSV-Datei: Beberbeck21.csvDiagramm: Beberbeck